sensor_id;sensor_type;location;lat;lon;timestamp;P1;durP1;ratioP1;P2;durP2;ratioP2
23628;SDS011;11991;57.150;-2.134;2022-12-18T00:01:46;1.40;;;1.30;;
23628;SDS011;11991;57.150;-2.134;2022-12-18T00:04:20;3.20;;;2.03;;
23628;SDS011;11991;57.150;-2.134;2022-12-18T00:06:49;2.20;;;2.00;;
23628;SDS011;11991;57.150;-2.134;2022-12-18T00:09:17;2.17;;;1.87;;
23628;SDS011;11991;57.150;-2.134;2022-12-18T00:11:44;2.27;;;1.60;;
23628;SDS011;11991;57.150;-2.134;2022-12-18T00:14:12;1.40;;;1.23;;
23628;SDS011;11991;57.150;-2.134;2022-12-18T00:16:40;1.30;;;1.10;;
23628;SDS011;11991;57.150;-2.134;2022-12-18T00:19:09;1.10;;;1.10;;
23628;SDS011;11991;57.150;-2.134;2022-12-18T00:21:37;1.43;;;1.33;;
23628;SDS011;11991;57.150;-2.134;2022-12-18T00:24:08;2.37;;;1.60;;
23628;SDS011;11991;57.150;-2.134;2022-12-18T00:26:36;4.17;;;2.30;;
23628;SDS011;11991;57.150;-2.134;2022-12-18T00:29:09;1.90;;;1.63;;
23628;SDS011;11991;57.150;-2.134;2022-12-18T00:31:42;2.03;;;1.87;;
23628;SDS011;11991;57.150;-2.134;2022-12-18T00:34:10;2.20;;;2.00;;
23628;SDS011;11991;57.150;-2.134;2022-12-18T00:36:39;1.40;;;1.30;;
23628;SDS011;11991;57.150;-2.134;2022-12-18T00:39:07;1.47;;;1.20;;
23628;SDS011;11991;57.150;-2.134;2022-12-18T00:41:36;2.30;;;1.87;;
23628;SDS011;11991;57.150;-2.134;2022-12-18T00:44:22;2.30;;;1.47;;
23628;SDS011;11991;57.150;-2.134;2022-12-18T00:46:49;1.00;;;0.90;;
23628;SDS011;11991;57.150;-2.134;2022-12-18T00:49:17;0.70;;;0.70;;
23628;SDS011;11991;57.150;-2.134;2022-12-18T00:51:46;1.53;;;1.40;;
23628;SDS011;11991;57.150;-2.134;2022-12-18T00:54:14;2.40;;;2.00;;
23628;SDS011;11991;57.150;-2.134;2022-12-18T00:56:42;1.93;;;1.50;;
23628;SDS011;11991;57.150;-2.134;2022-12-18T00:59:18;2.53;;;1.73;;
23628;SDS011;11991;57.150;-2.134;2022-12-18T01:01:46;3.20;;;2.13;;
23628;SDS011;11991;57.150;-2.134;2022-12-18T01:04:14;3.10;;;2.10;;
23628;SDS011;11991;57.150;-2.134;2022-12-18T01:06:44;2.20;;;1.60;;
23628;SDS011;11991;57.150;-2.134;2022-12-18T01:09:12;2.47;;;1.93;;
23628;SDS011;11991;57.150;-2.134;2022-12-18T01:11:39;1.80;;;1.60;;
23628;SDS011;11991;57.150;-2.134;2022-12-18T01:14:07;2.97;;;1.77;;
23628;SDS011;11991;57.150;-2.134;2022-12-18T01:16:36;2.37;;;1.53;;
23628;SDS011;11991;57.150;-2.134;2022-12-18T01:19:03;1.90;;;1.63;;
23628;SDS011;11991;57.150;-2.134;2022-12-18T01:21:30;1.93;;;1.57;;
23628;SDS011;11991;57.150;-2.134;2022-12-18T01:24:02;2.67;;;1.77;;
23628;SDS011;11991;57.150;-2.134;2022-12-18T01:26:30;2.47;;;1.70;;
23628;SDS011;11991;57.150;-2.134;2022-12-18T01:28:57;2.10;;;1.40;;
23628;SDS011;11991;57.150;-2.134;2022-12-18T01:31:25;1.17;;;1.00;;
23628;SDS011;11991;57.150;-2.134;2022-12-18T01:33:55;1.70;;;1.23;;
23628;SDS011;11991;57.150;-2.134;2022-12-18T01:36:26;1.70;;;1.03;;
23628;SDS011;11991;57.150;-2.134;2022-12-18T01:38:55;1.10;;;0.90;;
23628;SDS011;11991;57.150;-2.134;2022-12-18T01:41:24;1.57;;;0.80;;
23628;SDS011;11991;57.150;-2.134;2022-12-18T01:43:54;1.20;;;0.93;;
23628;SDS011;11991;57.150;-2.134;2022-12-18T01:46:26;1.20;;;1.10;;
23628;SDS011;11991;57.150;-2.134;2022-12-18T01:48:56;1.07;;;0.80;;
23628;SDS011;11991;57.150;-2.134;2022-12-18T01:51:26;0.93;;;0.83;;
23628;SDS011;11991;57.150;-2.134;2022-12-18T01:53:55;1.00;;;0.90;;
23628;SDS011;11991;57.150;-2.134;2022-12-18T01:56:23;0.93;;;0.93;;
23628;SDS011;11991;57.150;-2.134;2022-12-18T01:58:55;1.50;;;1.20;;
23628;SDS011;11991;57.150;-2.134;2022-12-18T02:01:29;2.27;;;1.73;;
23628;SDS011;11991;57.150;-2.134;2022-12-18T02:06:48;1.63;;;1.37;;
23628;SDS011;11991;57.150;-2.134;2022-12-18T02:09:44;1.73;;;1.43;;
23628;SDS011;11991;57.150;-2.134;2022-12-18T02:12:20;1.53;;;1.40;;
23628;SDS011;11991;57.150;-2.134;2022-12-18T02:15:08;1.43;;;1.33;;
23628;SDS011;11991;57.150;-2.134;2022-12-18T02:20:24;1.40;;;1.30;;
23628;SDS011;11991;57.150;-2.134;2022-12-18T02:28:42;2.80;;;1.57;;
23628;SDS011;11991;57.150;-2.134;2022-12-18T02:31:16;2.57;;;1.40;;
23628;SDS011;11991;57.150;-2.134;2022-12-18T02:33:51;1.40;;;1.30;;
23628;SDS011;11991;57.150;-2.134;2022-12-18T02:36:24;1.17;;;0.93;;
23628;SDS011;11991;57.150;-2.134;2022-12-18T02:38:55;0.80;;;0.80;;
23628;SDS011;11991;57.150;-2.134;2022-12-18T02:41:25;0.80;;;0.80;;
23628;SDS011;11991;57.150;-2.134;2022-12-18T02:43:57;0.67;;;0.67;;
23628;SDS011;11991;57.150;-2.134;2022-12-18T03:00:12;2.57;;;1.20;;
23628;SDS011;11991;57.150;-2.134;2022-12-18T03:02:56;0.93;;;0.87;;
23628;SDS011;11991;57.150;-2.134;2022-12-18T03:05:30;2.20;;;1.00;;
23628;SDS011;11991;57.150;-2.134;2022-12-18T03:08:06;1.00;;;0.90;;
23628;SDS011;11991;57.150;-2.134;2022-12-18T03:10:40;1.17;;;0.97;;
23628;SDS011;11991;57.150;-2.134;2022-12-18T03:13:16;1.00;;;0.90;;
23628;SDS011;11991;57.150;-2.134;2022-12-18T03:15:51;1.67;;;0.60;;
23628;SDS011;11991;57.150;-2.134;2022-12-18T03:18:22;1.27;;;0.80;;
23628;SDS011;11991;57.150;-2.134;2022-12-18T03:20:59;0.60;;;0.60;;
23628;SDS011;11991;57.150;-2.134;2022-12-18T03:23:42;0.60;;;0.60;;
23628;SDS011;11991;57.150;-2.134;2022-12-18T03:26:15;0.60;;;0.60;;
23628;SDS011;11991;57.150;-2.134;2022-12-18T03:28:52;0.87;;;0.70;;
23628;SDS011;11991;57.150;-2.134;2022-12-18T03:31:24;1.37;;;0.70;;
23628;SDS011;11991;57.150;-2.134;2022-12-18T03:33:59;1.03;;;0.70;;
23628;SDS011;11991;57.150;-2.134;2022-12-18T03:36:38;0.60;;;0.60;;
23628;SDS011;11991;57.150;-2.134;2022-12-18T03:39:06;0.60;;;0.60;;
23628;SDS011;11991;57.150;-2.134;2022-12-18T03:47:34;0.50;;;0.50;;
23628;SDS011;11991;57.150;-2.134;2022-12-18T03:50:14;0.50;;;0.50;;
23628;SDS011;11991;57.150;-2.134;2022-12-18T03:52:49;0.60;;;0.60;;
23628;SDS011;11991;57.150;-2.134;2022-12-18T03:55:35;0.50;;;0.50;;
23628;SDS011;11991;57.150;-2.134;2022-12-18T03:58:05;0.50;;;0.50;;
23628;SDS011;11991;57.150;-2.134;2022-12-18T04:00:46;0.60;;;0.57;;
23628;SDS011;11991;57.150;-2.134;2022-12-18T04:03:16;0.97;;;0.67;;
23628;SDS011;11991;57.150;-2.134;2022-12-18T04:05:52;0.63;;;0.60;;
23628;SDS011;11991;57.150;-2.134;2022-12-18T04:08:22;0.70;;;0.70;;
23628;SDS011;11991;57.150;-2.134;2022-12-18T04:10:59;0.73;;;0.73;;
23628;SDS011;11991;57.150;-2.134;2022-12-18T04:13:28;0.90;;;0.70;;
23628;SDS011;11991;57.150;-2.134;2022-12-18T04:16:01;0.53;;;0.53;;
23628;SDS011;11991;57.150;-2.134;2022-12-18T04:18:29;0.70;;;0.70;;
23628;SDS011;11991;57.150;-2.134;2022-12-18T04:20:58;0.80;;;0.80;;
23628;SDS011;11991;57.150;-2.134;2022-12-18T04:23:26;1.07;;;1.07;;
23628;SDS011;11991;57.150;-2.134;2022-12-18T04:25:56;0.80;;;0.80;;
23628;SDS011;11991;57.150;-2.134;2022-12-18T04:28:37;0.70;;;0.70;;
23628;SDS011;11991;57.150;-2.134;2022-12-18T04:31:05;0.80;;;0.80;;
23628;SDS011;11991;57.150;-2.134;2022-12-18T04:33:32;1.00;;;0.90;;
23628;SDS011;11991;57.150;-2.134;2022-12-18T04:36:00;1.00;;;0.90;;
23628;SDS011;11991;57.150;-2.134;2022-12-18T04:38:27;1.70;;;0.93;;
23628;SDS011;11991;57.150;-2.134;2022-12-18T04:41:02;1.00;;;1.00;;
23628;SDS011;11991;57.150;-2.134;2022-12-18T04:43:29;1.27;;;1.00;;
23628;SDS011;11991;57.150;-2.134;2022-12-18T04:46:06;1.00;;;0.80;;
23628;SDS011;11991;57.150;-2.134;2022-12-18T04:48:34;1.30;;;1.20;;
23628;SDS011;11991;57.150;-2.134;2022-12-18T04:51:02;1.80;;;1.00;;
23628;SDS011;11991;57.150;-2.134;2022-12-18T04:53:30;1.47;;;1.37;;
23628;SDS011;11991;57.150;-2.134;2022-12-18T04:56:02;0.73;;;0.73;;
23628;SDS011;11991;57.150;-2.134;2022-12-18T04:58:30;0.80;;;0.80;;
23628;SDS011;11991;57.150;-2.134;2022-12-18T05:00:57;0.70;;;0.70;;
23628;SDS011;11991;57.150;-2.134;2022-12-18T05:03:24;0.80;;;0.80;;
23628;SDS011;11991;57.150;-2.134;2022-12-18T05:05:52;0.77;;;0.77;;
23628;SDS011;11991;57.150;-2.134;2022-12-18T05:08:19;0.80;;;0.80;;
23628;SDS011;11991;57.150;-2.134;2022-12-18T05:10:46;1.27;;;0.87;;
23628;SDS011;11991;57.150;-2.134;2022-12-18T05:13:13;0.70;;;0.70;;
23628;SDS011;11991;57.150;-2.134;2022-12-18T05:15:40;0.70;;;0.70;;
23628;SDS011;11991;57.150;-2.134;2022-12-18T05:18:08;0.73;;;0.73;;
23628;SDS011;11991;57.150;-2.134;2022-12-18T05:20:35;1.10;;;1.00;;
23628;SDS011;11991;57.150;-2.134;2022-12-18T05:23:02;1.10;;;0.80;;
23628;SDS011;11991;57.150;-2.134;2022-12-18T05:25:30;0.60;;;0.60;;
23628;SDS011;11991;57.150;-2.134;2022-12-18T05:27:57;1.27;;;0.77;;
23628;SDS011;11991;57.150;-2.134;2022-12-18T05:30:25;1.27;;;1.00;;
23628;SDS011;11991;57.150;-2.134;2022-12-18T05:32:53;0.70;;;0.70;;
23628;SDS011;11991;57.150;-2.134;2022-12-18T05:35:20;0.60;;;0.60;;
23628;SDS011;11991;57.150;-2.134;2022-12-18T05:37:47;0.70;;;0.70;;
23628;SDS011;11991;57.150;-2.134;2022-12-18T05:40:14;0.90;;;0.90;;
23628;SDS011;11991;57.150;-2.134;2022-12-18T05:42:41;1.03;;;0.87;;
23628;SDS011;11991;57.150;-2.134;2022-12-18T05:45:08;1.10;;;1.00;;
23628;SDS011;11991;57.150;-2.134;2022-12-18T05:47:36;0.97;;;0.90;;
23628;SDS011;11991;57.150;-2.134;2022-12-18T05:50:03;1.10;;;1.00;;
23628;SDS011;11991;57.150;-2.134;2022-12-18T05:52:30;1.20;;;1.10;;
23628;SDS011;11991;57.150;-2.134;2022-12-18T05:54:57;1.43;;;1.33;;
23628;SDS011;11991;57.150;-2.134;2022-12-18T05:57:25;1.10;;;1.00;;
23628;SDS011;11991;57.150;-2.134;2022-12-18T05:59:52;1.10;;;1.00;;
23628;SDS011;11991;57.150;-2.134;2022-12-18T06:02:19;1.47;;;1.20;;
23628;SDS011;11991;57.150;-2.134;2022-12-18T06:04:47;1.33;;;1.20;;
23628;SDS011;11991;57.150;-2.134;2022-12-18T06:07:14;1.10;;;1.00;;
23628;SDS011;11991;57.150;-2.134;2022-12-18T06:09:41;1.43;;;1.33;;
23628;SDS011;11991;57.150;-2.134;2022-12-18T06:12:09;1.70;;;1.40;;
23628;SDS011;11991;57.150;-2.134;2022-12-18T06:14:37;0.83;;;0.83;;
23628;SDS011;11991;57.150;-2.134;2022-12-18T06:17:04;1.43;;;1.33;;
23628;SDS011;11991;57.150;-2.134;2022-12-18T06:19:31;2.80;;;1.80;;
23628;SDS011;11991;57.150;-2.134;2022-12-18T06:21:58;1.50;;;1.40;;
23628;SDS011;11991;57.150;-2.134;2022-12-18T06:24:25;1.70;;;1.40;;
23628;SDS011;11991;57.150;-2.134;2022-12-18T06:26:53;2.17;;;1.80;;
23628;SDS011;11991;57.150;-2.134;2022-12-18T06:29:20;1.70;;;1.60;;
23628;SDS011;11991;57.150;-2.134;2022-12-18T06:31:47;2.00;;;1.57;;
23628;SDS011;11991;57.150;-2.134;2022-12-18T06:34:14;2.27;;;2.03;;
23628;SDS011;11991;57.150;-2.134;2022-12-18T06:36:41;2.00;;;1.60;;
23628;SDS011;11991;57.150;-2.134;2022-12-18T06:39:09;2.63;;;1.80;;
23628;SDS011;11991;57.150;-2.134;2022-12-18T06:41:36;2.00;;;1.67;;
23628;SDS011;11991;57.150;-2.134;2022-12-18T06:44:04;3.13;;;2.10;;
23628;SDS011;11991;57.150;-2.134;2022-12-18T06:46:32;1.93;;;1.83;;
23628;SDS011;11991;57.150;-2.134;2022-12-18T06:48:59;2.40;;;2.20;;
23628;SDS011;11991;57.150;-2.134;2022-12-18T06:51:26;2.77;;;2.27;;
23628;SDS011;11991;57.150;-2.134;2022-12-18T06:53:53;2.50;;;2.07;;
23628;SDS011;11991;57.150;-2.134;2022-12-18T06:56:20;3.23;;;2.23;;
23628;SDS011;11991;57.150;-2.134;2022-12-18T06:58:50;3.40;;;2.43;;
23628;SDS011;11991;57.150;-2.134;2022-12-18T07:01:18;3.70;;;2.30;;
23628;SDS011;11991;57.150;-2.134;2022-12-18T07:03:45;3.13;;;2.37;;
23628;SDS011;11991;57.150;-2.134;2022-12-18T07:06:13;4.67;;;2.97;;
23628;SDS011;11991;57.150;-2.134;2022-12-18T07:08:43;3.30;;;2.67;;
23628;SDS011;11991;57.150;-2.134;2022-12-18T07:11:11;2.80;;;2.17;;
23628;SDS011;11991;57.150;-2.134;2022-12-18T07:13:38;4.67;;;3.00;;
23628;SDS011;11991;57.150;-2.134;2022-12-18T07:16:10;2.50;;;2.13;;
23628;SDS011;11991;57.150;-2.134;2022-12-18T07:18:49;3.17;;;2.60;;
23628;SDS011;11991;57.150;-2.134;2022-12-18T07:21:17;5.10;;;2.87;;
23628;SDS011;11991;57.150;-2.134;2022-12-18T07:23:46;5.07;;;2.80;;
23628;SDS011;11991;57.150;-2.134;2022-12-18T07:26:15;3.70;;;3.03;;
23628;SDS011;11991;57.150;-2.134;2022-12-18T07:28:44;3.80;;;3.10;;
23628;SDS011;11991;57.150;-2.134;2022-12-18T07:31:12;3.80;;;3.00;;
23628;SDS011;11991;57.150;-2.134;2022-12-18T07:33:42;3.07;;;2.63;;
23628;SDS011;11991;57.150;-2.134;2022-12-18T07:36:10;2.10;;;1.90;;
23628;SDS011;11991;57.150;-2.134;2022-12-18T07:38:37;3.10;;;2.77;;
23628;SDS011;11991;57.150;-2.134;2022-12-18T07:41:09;3.13;;;2.57;;
23628;SDS011;11991;57.150;-2.134;2022-12-18T07:43:37;2.77;;;2.43;;
23628;SDS011;11991;57.150;-2.134;2022-12-18T07:46:07;2.70;;;2.17;;
23628;SDS011;11991;57.150;-2.134;2022-12-18T07:48:37;3.53;;;2.77;;
23628;SDS011;11991;57.150;-2.134;2022-12-18T07:51:05;2.60;;;2.27;;
23628;SDS011;11991;57.150;-2.134;2022-12-18T07:53:33;2.57;;;2.07;;
23628;SDS011;11991;57.150;-2.134;2022-12-18T07:56:03;1.60;;;1.50;;
23628;SDS011;11991;57.150;-2.134;2022-12-18T07:58:52;4.87;;;3.07;;
23628;SDS011;11991;57.150;-2.134;2022-12-18T08:01:20;4.57;;;3.23;;
23628;SDS011;11991;57.150;-2.134;2022-12-18T08:03:47;2.63;;;2.07;;
23628;SDS011;11991;57.150;-2.134;2022-12-18T08:06:17;3.23;;;2.63;;
23628;SDS011;11991;57.150;-2.134;2022-12-18T08:08:53;3.93;;;2.50;;
23628;SDS011;11991;57.150;-2.134;2022-12-18T08:11:22;3.70;;;2.50;;
23628;SDS011;11991;57.150;-2.134;2022-12-18T08:13:51;3.27;;;2.80;;
23628;SDS011;11991;57.150;-2.134;2022-12-18T08:16:19;3.67;;;2.80;;
23628;SDS011;11991;57.150;-2.134;2022-12-18T08:18:47;4.87;;;3.10;;
23628;SDS011;11991;57.150;-2.134;2022-12-18T08:21:17;3.40;;;2.63;;
23628;SDS011;11991;57.150;-2.134;2022-12-18T08:23:47;3.00;;;2.50;;
23628;SDS011;11991;57.150;-2.134;2022-12-18T08:26:17;2.93;;;2.50;;
23628;SDS011;11991;57.150;-2.134;2022-12-18T08:28:46;4.00;;;2.77;;
23628;SDS011;11991;57.150;-2.134;2022-12-18T08:31:14;5.03;;;2.80;;
23628;SDS011;11991;57.150;-2.134;2022-12-18T08:33:42;3.00;;;2.40;;
23628;SDS011;11991;57.150;-2.134;2022-12-18T08:36:10;3.10;;;2.07;;
23628;SDS011;11991;57.150;-2.134;2022-12-18T08:38:37;1.80;;;1.63;;
23628;SDS011;11991;57.150;-2.134;2022-12-18T08:41:05;2.33;;;2.00;;
23628;SDS011;11991;57.150;-2.134;2022-12-18T08:43:33;3.17;;;2.43;;
23628;SDS011;11991;57.150;-2.134;2022-12-18T08:46:20;2.10;;;1.67;;
23628;SDS011;11991;57.150;-2.134;2022-12-18T08:48:50;3.40;;;2.43;;
23628;SDS011;11991;57.150;-2.134;2022-12-18T08:51:19;2.53;;;2.30;;
23628;SDS011;11991;57.150;-2.134;2022-12-18T08:53:46;3.07;;;2.53;;
23628;SDS011;11991;57.150;-2.134;2022-12-18T08:56:14;3.77;;;2.30;;
23628;SDS011;11991;57.150;-2.134;2022-12-18T08:58:41;2.20;;;1.97;;
23628;SDS011;11991;57.150;-2.134;2022-12-18T09:01:09;3.37;;;2.33;;
23628;SDS011;11991;57.150;-2.134;2022-12-18T09:03:39;3.33;;;1.87;;
23628;SDS011;11991;57.150;-2.134;2022-12-18T09:06:08;2.43;;;1.90;;
23628;SDS011;11991;57.150;-2.134;2022-12-18T09:08:36;1.60;;;1.50;;
23628;SDS011;11991;57.150;-2.134;2022-12-18T09:11:03;2.43;;;2.20;;
23628;SDS011;11991;57.150;-2.134;2022-12-18T09:13:31;2.40;;;2.17;;
23628;SDS011;11991;57.150;-2.134;2022-12-18T09:16:00;3.33;;;2.33;;
23628;SDS011;11991;57.150;-2.134;2022-12-18T09:18:29;2.53;;;1.90;;
23628;SDS011;11991;57.150;-2.134;2022-12-18T09:20:57;2.10;;;1.90;;
23628;SDS011;11991;57.150;-2.134;2022-12-18T09:23:26;2.00;;;1.73;;
23628;SDS011;11991;57.150;-2.134;2022-12-18T09:25:58;3.50;;;1.93;;
23628;SDS011;11991;57.150;-2.134;2022-12-18T09:28:27;2.40;;;2.10;;
23628;SDS011;11991;57.150;-2.134;2022-12-18T09:30:55;3.37;;;1.87;;
23628;SDS011;11991;57.150;-2.134;2022-12-18T09:33:49;1.90;;;1.80;;
23628;SDS011;11991;57.150;-2.134;2022-12-18T09:36:16;2.10;;;1.90;;
23628;SDS011;11991;57.150;-2.134;2022-12-18T09:38:47;2.10;;;1.63;;
23628;SDS011;11991;57.150;-2.134;2022-12-18T09:44:57;3.27;;;2.33;;
23628;SDS011;11991;57.150;-2.134;2022-12-18T09:47:30;2.40;;;1.77;;
23628;SDS011;11991;57.150;-2.134;2022-12-18T09:50:05;1.97;;;1.80;;
23628;SDS011;11991;57.150;-2.134;2022-12-18T09:52:48;1.47;;;1.30;;
23628;SDS011;11991;57.150;-2.134;2022-12-18T09:55:24;2.33;;;1.40;;
23628;SDS011;11991;57.150;-2.134;2022-12-18T09:58:06;1.50;;;1.40;;
23628;SDS011;11991;57.150;-2.134;2022-12-18T10:00:49;4.80;;;2.57;;
23628;SDS011;11991;57.150;-2.134;2022-12-18T10:03:18;3.77;;;1.90;;
23628;SDS011;11991;57.150;-2.134;2022-12-18T10:26:14;2.87;;;2.20;;
23628;SDS011;11991;57.150;-2.134;2022-12-18T10:28:42;5.63;;;2.67;;
23628;SDS011;11991;57.150;-2.134;2022-12-18T10:31:18;4.37;;;2.87;;
23628;SDS011;11991;57.150;-2.134;2022-12-18T10:33:50;3.90;;;2.40;;
23628;SDS011;11991;57.150;-2.134;2022-12-18T10:36:22;5.93;;;3.47;;
23628;SDS011;11991;57.150;-2.134;2022-12-18T10:38:51;3.37;;;2.70;;
23628;SDS011;11991;57.150;-2.134;2022-12-18T10:43:48;4.20;;;3.47;;
23628;SDS011;11991;57.150;-2.134;2022-12-18T10:46:38;4.40;;;3.03;;
23628;SDS011;11991;57.150;-2.134;2022-12-18T10:49:07;2.70;;;2.27;;
23628;SDS011;11991;57.150;-2.134;2022-12-18T10:51:52;3.80;;;2.90;;
23628;SDS011;11991;57.150;-2.134;2022-12-18T10:54:52;2.83;;;2.03;;
23628;SDS011;11991;57.150;-2.134;2022-12-18T11:02:57;2.00;;;1.40;;
23628;SDS011;11991;57.150;-2.134;2022-12-18T11:05:32;2.33;;;1.97;;
23628;SDS011;11991;57.150;-2.134;2022-12-18T11:08:00;2.57;;;1.57;;
23628;SDS011;11991;57.150;-2.134;2022-12-18T11:10:32;5.30;;;2.40;;
23628;SDS011;11991;57.150;-2.134;2022-12-18T11:13:10;2.37;;;1.60;;
23628;SDS011;11991;57.150;-2.134;2022-12-18T11:15:46;7.80;;;2.60;;
23628;SDS011;11991;57.150;-2.134;2022-12-18T11:20:54;1.87;;;1.30;;
23628;SDS011;11991;57.150;-2.134;2022-12-18T11:23:53;3.67;;;2.33;;
23628;SDS011;11991;57.150;-2.134;2022-12-18T11:26:21;4.27;;;2.60;;
23628;SDS011;11991;57.150;-2.134;2022-12-18T11:29:08;3.60;;;1.80;;
23628;SDS011;11991;57.150;-2.134;2022-12-18T11:31:36;4.13;;;2.67;;
23628;SDS011;11991;57.150;-2.134;2022-12-18T11:36:58;3.43;;;2.23;;
23628;SDS011;11991;57.150;-2.134;2022-12-18T11:42:27;4.37;;;2.47;;
23628;SDS011;11991;57.150;-2.134;2022-12-18T11:50:40;3.90;;;1.50;;
23628;SDS011;11991;57.150;-2.134;2022-12-18T11:53:10;6.30;;;2.77;;
23628;SDS011;11991;57.150;-2.134;2022-12-18T11:58:18;3.33;;;1.63;;
23628;SDS011;11991;57.150;-2.134;2022-12-18T12:21:06;1.80;;;1.10;;
23628;SDS011;11991;57.150;-2.134;2022-12-18T12:23:55;4.23;;;1.60;;
23628;SDS011;11991;57.150;-2.134;2022-12-18T12:29:53;4.67;;;1.37;;
23628;SDS011;11991;57.150;-2.134;2022-12-18T12:32:30;3.00;;;1.40;;
23628;SDS011;11991;57.150;-2.134;2022-12-18T12:38:25;6.33;;;1.60;;
23628;SDS011;11991;57.150;-2.134;2022-12-18T12:41:03;2.73;;;1.43;;
23628;SDS011;11991;57.150;-2.134;2022-12-18T12:44:38;3.40;;;1.60;;
23628;SDS011;11991;57.150;-2.134;2022-12-18T12:47:18;5.43;;;2.17;;
23628;SDS011;11991;57.150;-2.134;2022-12-18T12:49:50;4.73;;;2.00;;
23628;SDS011;11991;57.150;-2.134;2022-12-18T12:52:39;1.70;;;1.60;;
23628;SDS011;11991;57.150;-2.134;2022-12-18T12:55:21;3.90;;;1.60;;
23628;SDS011;11991;57.150;-2.134;2022-12-18T13:00:25;6.87;;;3.00;;
23628;SDS011;11991;57.150;-2.134;2022-12-18T13:03:35;8.47;;;2.60;;
23628;SDS011;11991;57.150;-2.134;2022-12-18T13:06:29;5.40;;;2.47;;
23628;SDS011;11991;57.150;-2.134;2022-12-18T13:09:10;6.20;;;3.17;;
23628;SDS011;11991;57.150;-2.134;2022-12-18T13:11:39;4.83;;;2.40;;
23628;SDS011;11991;57.150;-2.134;2022-12-18T13:17:15;6.77;;;2.87;;
23628;SDS011;11991;57.150;-2.134;2022-12-18T13:22:28;10.53;;;3.80;;
23628;SDS011;11991;57.150;-2.134;2022-12-18T13:28:16;7.37;;;3.00;;
23628;SDS011;11991;57.150;-2.134;2022-12-18T13:30:54;4.13;;;2.60;;
23628;SDS011;11991;57.150;-2.134;2022-12-18T13:33:48;5.47;;;2.43;;
23628;SDS011;11991;57.150;-2.134;2022-12-18T13:36:36;8.27;;;3.30;;
23628;SDS011;11991;57.150;-2.134;2022-12-18T13:39:11;5.90;;;2.93;;
23628;SDS011;11991;57.150;-2.134;2022-12-18T13:42:38;8.33;;;4.20;;
23628;SDS011;11991;57.150;-2.134;2022-12-18T13:45:01;7.83;;;4.00;;
23628;SDS011;11991;57.150;-2.134;2022-12-18T13:47:32;5.07;;;2.90;;
23628;SDS011;11991;57.150;-2.134;2022-12-18T13:50:24;8.27;;;3.40;;
23628;SDS011;11991;57.150;-2.134;2022-12-18T13:53:03;6.10;;;2.90;;
23628;SDS011;11991;57.150;-2.134;2022-12-18T13:55:32;5.53;;;2.60;;
23628;SDS011;11991;57.150;-2.134;2022-12-18T13:58:03;6.27;;;2.77;;
23628;SDS011;11991;57.150;-2.134;2022-12-18T14:00:34;9.40;;;4.43;;
23628;SDS011;11991;57.150;-2.134;2022-12-18T14:03:02;7.93;;;4.50;;
23628;SDS011;11991;57.150;-2.134;2022-12-18T14:06:05;7.37;;;3.63;;
23628;SDS011;11991;57.150;-2.134;2022-12-18T14:08:36;5.43;;;3.10;;
23628;SDS011;11991;57.150;-2.134;2022-12-18T14:11:06;7.20;;;2.83;;
23628;SDS011;11991;57.150;-2.134;2022-12-18T14:13:41;8.70;;;3.77;;
23628;SDS011;11991;57.150;-2.134;2022-12-18T14:16:11;5.60;;;3.63;;
23628;SDS011;11991;57.150;-2.134;2022-12-18T14:18:46;8.43;;;4.37;;
23628;SDS011;11991;57.150;-2.134;2022-12-18T14:24:18;12.83;;;5.10;;
23628;SDS011;11991;57.150;-2.134;2022-12-18T14:26:50;9.37;;;5.33;;
23628;SDS011;11991;57.150;-2.134;2022-12-18T14:37:16;5.80;;;3.07;;
23628;SDS011;11991;57.150;-2.134;2022-12-18T14:39:56;8.37;;;3.70;;
23628;SDS011;11991;57.150;-2.134;2022-12-18T14:42:37;5.93;;;2.93;;
23628;SDS011;11991;57.150;-2.134;2022-12-18T14:51:06;5.50;;;2.70;;
23628;SDS011;11991;57.150;-2.134;2022-12-18T14:53:39;10.07;;;3.53;;
23628;SDS011;11991;57.150;-2.134;2022-12-18T14:56:27;6.70;;;2.37;;
23628;SDS011;11991;57.150;-2.134;2022-12-18T14:59:04;7.30;;;3.37;;
23628;SDS011;11991;57.150;-2.134;2022-12-18T15:04:36;8.30;;;2.87;;
23628;SDS011;11991;57.150;-2.134;2022-12-18T15:07:41;11.90;;;4.80;;
23628;SDS011;11991;57.150;-2.134;2022-12-18T15:10:16;5.63;;;2.30;;
23628;SDS011;11991;57.150;-2.134;2022-12-18T15:12:49;7.17;;;2.50;;
23628;SDS011;11991;57.150;-2.134;2022-12-18T15:26:20;6.20;;;2.90;;
23628;SDS011;11991;57.150;-2.134;2022-12-18T15:28:55;9.87;;;3.57;;
23628;SDS011;11991;57.150;-2.134;2022-12-18T15:31:29;6.07;;;3.10;;
23628;SDS011;11991;57.150;-2.134;2022-12-18T15:34:10;4.80;;;2.70;;
23628;SDS011;11991;57.150;-2.134;2022-12-18T15:36:40;3.73;;;2.23;;
23628;SDS011;11991;57.150;-2.134;2022-12-18T15:39:10;4.03;;;2.43;;
23628;SDS011;11991;57.150;-2.134;2022-12-18T15:45:42;5.20;;;2.53;;
23628;SDS011;11991;57.150;-2.134;2022-12-18T15:48:43;8.43;;;3.53;;
23628;SDS011;11991;57.150;-2.134;2022-12-18T15:51:18;9.03;;;3.47;;
23628;SDS011;11991;57.150;-2.134;2022-12-18T15:53:51;9.93;;;3.40;;
23628;SDS011;11991;57.150;-2.134;2022-12-18T15:56:22;6.50;;;2.87;;
23628;SDS011;11991;57.150;-2.134;2022-12-18T15:59:13;8.47;;;3.00;;
23628;SDS011;11991;57.150;-2.134;2022-12-18T16:01:47;5.07;;;2.63;;
23628;SDS011;11991;57.150;-2.134;2022-12-18T16:04:18;5.60;;;2.20;;
23628;SDS011;11991;57.150;-2.134;2022-12-18T16:07:11;8.73;;;3.13;;
23628;SDS011;11991;57.150;-2.134;2022-12-18T16:09:48;13.00;;;4.77;;
23628;SDS011;11991;57.150;-2.134;2022-12-18T16:12:18;10.67;;;4.47;;
23628;SDS011;11991;57.150;-2.134;2022-12-18T16:14:50;5.63;;;2.70;;
23628;SDS011;11991;57.150;-2.134;2022-12-18T16:17:19;8.17;;;2.77;;
23628;SDS011;11991;57.150;-2.134;2022-12-18T16:19:46;4.13;;;1.93;;
23628;SDS011;11991;57.150;-2.134;2022-12-18T16:22:18;4.53;;;2.40;;
23628;SDS011;11991;57.150;-2.134;2022-12-18T16:24:52;4.50;;;1.87;;
23628;SDS011;11991;57.150;-2.134;2022-12-18T16:27:22;8.60;;;2.83;;
23628;SDS011;11991;57.150;-2.134;2022-12-18T16:29:50;7.17;;;2.90;;
23628;SDS011;11991;57.150;-2.134;2022-12-18T16:32:20;5.40;;;2.43;;
23628;SDS011;11991;57.150;-2.134;2022-12-18T16:34:50;7.13;;;2.93;;
23628;SDS011;11991;57.150;-2.134;2022-12-18T16:37:18;5.77;;;2.20;;
23628;SDS011;11991;57.150;-2.134;2022-12-18T16:39:48;4.83;;;2.40;;
23628;SDS011;11991;57.150;-2.134;2022-12-18T16:42:19;7.20;;;3.23;;
23628;SDS011;11991;57.150;-2.134;2022-12-18T16:44:47;9.50;;;3.33;;
23628;SDS011;11991;57.150;-2.134;2022-12-18T16:47:18;7.00;;;3.10;;
23628;SDS011;11991;57.150;-2.134;2022-12-18T16:49:50;10.73;;;3.17;;
23628;SDS011;11991;57.150;-2.134;2022-12-18T16:52:52;6.90;;;2.90;;
23628;SDS011;11991;57.150;-2.134;2022-12-18T16:55:21;12.93;;;5.10;;
23628;SDS011;11991;57.150;-2.134;2022-12-18T16:57:48;9.03;;;4.40;;
23628;SDS011;11991;57.150;-2.134;2022-12-18T17:00:15;7.23;;;3.67;;
23628;SDS011;11991;57.150;-2.134;2022-12-18T17:03:08;10.40;;;3.37;;
23628;SDS011;11991;57.150;-2.134;2022-12-18T17:05:38;9.40;;;3.30;;
23628;SDS011;11991;57.150;-2.134;2022-12-18T17:08:06;8.43;;;3.90;;
23628;SDS011;11991;57.150;-2.134;2022-12-18T17:10:36;6.83;;;2.83;;
23628;SDS011;11991;57.150;-2.134;2022-12-18T17:13:03;7.13;;;3.10;;
23628;SDS011;11991;57.150;-2.134;2022-12-18T17:15:33;8.57;;;3.13;;
23628;SDS011;11991;57.150;-2.134;2022-12-18T17:18:05;4.97;;;2.13;;
23628;SDS011;11991;57.150;-2.134;2022-12-18T17:20:33;6.03;;;3.40;;
23628;SDS011;11991;57.150;-2.134;2022-12-18T17:23:03;5.38;;;2.33;;
23628;SDS011;11991;57.150;-2.134;2022-12-18T17:25:31;9.97;;;3.17;;
23628;SDS011;11991;57.150;-2.134;2022-12-18T17:28:05;8.93;;;3.67;;
23628;SDS011;11991;57.150;-2.134;2022-12-18T17:30:56;5.53;;;2.13;;
23628;SDS011;11991;57.150;-2.134;2022-12-18T17:33:24;7.97;;;3.20;;
23628;SDS011;11991;57.150;-2.134;2022-12-18T17:35:51;11.60;;;3.73;;
23628;SDS011;11991;57.150;-2.134;2022-12-18T17:38:19;6.10;;;2.73;;